Wednesday, May 23, 2018, 8:52 AM EDT
Back to Local

KPYM, Plymouth Municipal Airport

Location: Carver, MA, United States Lat: 41.9
Local Time: 8:52 AM EDT (12:52 GMT) Lon: -70.733
Time Zone: US/Eastern Elev: 147 ft

Show me the last for .
Show Decoded

2018-05-23 07:52 METAR KPYM 231152Z AUTO 24006KT 10SM -RA FEW007 BKN080 OVC120 14/13 A2988 RMK
                 AO2 RAB46 SLP118 P0000 60003 70009 T01440133 10144 20117 55002 =
2018-05-23 07:47 METAR KPYM 231147Z AUTO 24005KT 10SM -RA SCT007 BKN070 OVC120 14/13 A2988 RMK
                 AO2 RAB46 P0000 =
2018-05-23 07:36 METAR KPYM 231136Z AUTO 24006KT 10SM BKN007 BKN011 OVC120 14/13 A2988 RMK AO2
                 CIG 006V009 T01390128 =
2018-05-23 07:00 METAR KPYM 231100Z AUTO 23004KT 10SM SCT007 OVC100 14/13 A2988 RMK AO2 T01390128
                 =
2018-05-23 06:52 METAR KPYM 231052Z AUTO 24005KT 10SM BKN007 OVC110 14/13 A2988 RMK AO2 SLP117
                 T01390128 =
2018-05-23 05:52 METAR KPYM 230952Z AUTO 23005KT 10SM OVC008 13/12 A2989 RMK AO2 RAB22E49 CIG
                 005V011 SLP120 P0003 T01280122 =
2018-05-23 05:32 METAR KPYM 230932Z AUTO 22008KT 5SM -RA BR FEW005 BKN009 OVC048 13/12 A2989 RMK
                 AO2 RAB22 P0003 T01280122 =
2018-05-23 05:24 METAR KPYM 230924Z AUTO 23006KT 7SM -RA FEW005 SCT009 OVC048 13/12 A2989 RMK AO2
                 RAB22 P0001 T01280122 =
2018-05-23 04:52 METAR KPYM 230852Z AUTO 22006KT 10SM FEW012 BKN046 OVC055 13/12 A2988 RMK AO2
                 SLP118 T01280117 55002 =
2018-05-23 04:47 METAR KPYM 230847Z AUTO 22006KT 10SM SCT012 BKN046 OVC055 13/12 A2988 RMK AO2 =
2018-05-23 04:22 METAR KPYM 230822Z AUTO VRB05KT 10SM OVC014 12/12 A2987 RMK AO2 T01220117 =
2018-05-23 03:52 METAR KPYM 230752Z AUTO 18003KT 10SM OVC016 12/12 A2988 RMK AO2 SLP116 T01220117
                 =
2018-05-23 02:52 METAR KPYM 230652Z AUTO 23005KT 10SM OVC017 12/11 A2989 RMK AO2 SLP121 T01220111
                 =
2018-05-23 02:03 METAR KPYM 230603Z AUTO 21004KT 10SM FEW013 OVC021 12/11 A2990 RMK AO2 T01170111
                 =
2018-05-23 01:52 METAR KPYM 230552Z AUTO 21004KT 10SM BKN013 OVC022 12/11 A2991 RMK AO2 SLP127
                 60002 T01170111 10133 20111 58027 =
2018-05-23 01:38 METAR KPYM 230538Z AUTO 22004KT 10SM OVC013 12/11 A2992 RMK AO2 T01170111 =
2018-05-23 00:52 METAR KPYM 230452Z AUTO 21004KT 10SM OVC017 12/11 A2994 RMK AO2 SLP139 T01170106
                 402110089 =
2018-05-22 23:52 METAR KPYM 230352Z AUTO 21004KT 10SM OVC023 12/11 A2997 RMK AO2 SLP147 T01170106
                 =
2018-05-22 23:38 METAR KPYM 230338Z AUTO 21004KT 10SM BKN025 OVC037 12/11 A2997 RMK AO2 T01170106
                 =
2018-05-22 23:12 METAR KPYM 230312Z AUTO 19003KT 10SM FEW029 OVC036 12/11 A2998 RMK AO2 T01170106
                 =
2018-05-22 22:52 METAR KPYM 230252Z AUTO 18003KT 10SM BKN028 OVC036 12/11 A2999 RMK AO2
                 RAB0155E41 SLP154 P0000 60002 T01170106 58010 =
2018-05-22 22:47 METAR KPYM 230247Z AUTO 20004KT 10SM BKN029 OVC034 12/11 A2999 RMK AO2
                 RAB0155E41 P0000 =
2018-05-22 21:52 METAR KPYM 230152Z AUTO 20003KT 10SM OVC034 11/11 A3002 RMK AO2 RAE51 SLP165
                 P0001 T01110106 =
2018-05-22 20:52 METAR KPYM 230052Z AUTO 20003KT 10SM -RA OVC049 13/11 A3002 RMK AO2 SLP164 P0001
                 T01280111 =
2018-05-22 19:52 METAR KPYM 222352Z AUTO 00000KT 10SM -RA SCT050 BKN100 OVC120 13/12 A3003 RMK
                 AO2 RAB2258 SLP170 P0002 60004 T01280117 10211 20128 58019 =
2018-05-22 18:52 METAR KPYM 222252Z AUTO 16003KT 10SM BKN070 OVC085 13/12 A3006 RMK AO2 RAE51
                 SLP179 P0002 T01330117 =
2018-05-22 17:52 METAR KPYM 222152Z AUTO 19003KT 10SM -RA FEW065 BKN100 OVC110 15/11 A3008 RMK
                 AO2 SLP188 P0000 T01500106 =
2018-05-22 16:52 METAR KPYM 222052Z AUTO 20008KT 10SM -RA FEW070 OVC110 17/08 A3009 RMK AO2
                 SLP188 P0000 60000 T01670083 58014 =
2018-05-22 15:52 METAR KPYM 221952Z AUTO 19007KT 10SM -RA OVC100 18/10 A3011 RMK AO2
                 RAB1858E07B50 SLP195 P0000 T01780100 =
2018-05-22 14:52 METAR KPYM 221852Z AUTO 17006KT 10SM OVC100 19/09 A3012 RMK AO2 RAB25E39 SLP198
                 P0000 T01940094 =
2018-05-22 13:52 METAR KPYM 221752Z AUTO VRB04KT 10SM FEW075 SCT095 BKN110 21/12 A3013 RMK AO2
                 SLP202 T02060122 10211 20161 58012 =
2018-05-22 12:52 METAR KPYM 221652Z AUTO VRB04KT 10SM FEW080 BKN100 BKN120 20/13 A3014 RMK AO2
                 SLP207 T02000133 =
2018-05-22 11:52 METAR KPYM 221552Z AUTO 20005KT 10SM FEW120 21/13 A3015 RMK AO2 SLP210 T02060128
                 =
2018-05-22 10:52 METAR KPYM 221452Z AUTO 17004KT 10SM CLR 19/12 A3016 RMK AO2 SLP213 T01940122
                 58003 =
2018-05-22 09:52 METAR KPYM 221352Z AUTO 20005KT 10SM CLR 21/12 A3017 RMK AO2 SLP215 T02110117 =

Support USWX by starting your Amazon purchase here.